Terminal Aerodrome Forecast
Issued by NWS Bismarck, ND

Home | Current Version | Previous Version | Graphics & Text | Print | Product List | Glossary On
Versions: 1 2 3 4 5 6 7 8 9 10 11 12 13 14
591
FTUS43 KBIS 212339
TAFBIS
TAF
KBIS 212339Z 2200/2224 16021G29KT P6SM BKN050
     FM220900 14015KT P6SM VCSH BKN015
     FM221400 16013KT P6SM VCSH OVC008
     FM221700 17015KT P6SM BKN015
     FM222100 17014KT P6SM BKN040=

USA.gov is the U.S. government's official web portal to all federal, state and local government web resources and services.